Estació municipal de Cànoves i Samalús (Vallès Oriental, P.N.del Montseny)

Consulta les dades en temps real de l'estació municipal de Cànoves i Samalús





Hora UTC 06:30
Temperatura 14.9 ºC
Humitat 85.6 %
Pressió 1015.9 hPa
Pluja 0.0 mm
Velocitat vent 2.2 km/h
Direcció vent NE
Radiació solar 167.4 W/m²

Webcam

Dades diàries 2026-05-03



Hora UTC (hivern +1h; estiu +2h)
Temperatura (ºC) Humitat (%) Pressió (hPa) Velocitat vent (km/h) Precipitació (mm) Radiació solar (W/m²)
Hora UTC Aire Humitat Pressió Vel. Dir. Vel. Max Dir. Intent. màx 5 min. Rad. Sol.
00:05 14.4 84.4 1017.7 3.0 N 3.0 NNE 0.0 0.1
00:10 14.4 84.1 1017.6 3.3 NNW 4.9 NNW 0.0 0.1
00:15 14.4 84.2 1017.6 0.6 NNW 2.1 NNW 0.0 0.1
00:20 14.4 84.6 1017.6 1.7 NW 2.8 NW 0.0 0.1
00:25 14.5 85.2 1017.6 1.0 NW 2.5 NW 0.0 0.1
00:30 14.4 84.9 1017.5 0.8 NNE 2.1 NE 0.0 0.1
00:35 14.4 84.8 1017.4 0.0 NNE 0.0 NNE 0.0 0.1
00:40 14.4 84.7 1017.3 0.0 NNE 0.0 NNE 0.0 0.1
00:45 14.3 84.9 1017.2 0.1 NW 1.4 NW 0.0 0.1
00:50 14.4 85.7 1017.1 0.4 WNW 2.1 NW 0.0 0.1
00:55 14.5 86.0 1017.1 0.0 NNE 0.0 WNW 0.0 0.1
01:00 14.4 86.0 1017.0 2.6 SE 3.9 ESE 0.0 0.1
01:05 14.4 86.4 1017.1 2.3 SE 3.9 SE 0.0 0.1
01:10 14.5 87.0 1017.0 2.1 ESE 2.8 SE 0.0 0.1
01:15 14.5 86.9 1016.9 0.5 E 2.1 E 0.0 0.1
01:20 14.4 86.9 1016.9 0.0 NNE 0.0 E 0.0 0.1
01:25 14.4 87.2 1016.9 0.0 NNE 0.0 SSW 0.0 0.1
01:30 14.5 87.4 1016.8 0.0 NNE 0.0 SSW 0.0 0.1
01:35 14.4 87.3 1016.8 0.7 NE 2.5 NE 0.0 0.1
01:40 14.3 87.2 1016.6 1.0 NNE 3.2 NE 0.0 0.1
01:45 14.3 87.3 1016.5 1.2 NE 3.9 NE 0.0 0.1
01:50 14.3 87.7 1016.5 2.1 ENE 4.6 ENE 0.0 0.1
01:55 14.3 87.6 1016.5 0.6 SSE 2.5 ESE 0.0 0.1
02:00 14.3 88.2 1016.5 2.5 S 4.2 SSE 0.0 0.1
02:05 14.3 88.5 1016.5 0.6 S 2.1 S 0.0 0.1
02:10 14.2 88.5 1016.5 0.0 NNE 0.0 S 0.0 0.1
02:15 14.2 88.9 1016.5 0.0 NNE 0.0 S 0.0 0.1
02:20 14.2 89.3 1016.4 0.3 NW 1.4 NW 0.0 0.1
02:25 14.1 89.2 1016.4 0.0 NNE 0.0 NW 0.0 0.1
02:30 13.9 89.0 1016.4 0.0 NNE 0.0 NW 0.0 0.2
02:35 13.8 89.3 1016.4 0.0 NNE 0.0 NW 0.0 0.1
02:40 13.8 89.6 1016.4 1.0 N 4.2 N 0.0 0.1
02:45 13.7 89.6 1016.4 3.1 NNW 4.6 NNW 0.0 0.1
02:50 13.7 89.7 1016.4 2.4 N 4.6 NNW 0.0 0.1
02:55 13.7 89.1 1016.3 3.0 N 4.9 N 0.0 0.1
03:00 13.5 88.1 1016.3 2.6 NNW 5.3 NW 0.0 0.1
03:05 13.6 87.7 1016.3 3.0 N 4.9 NNE 0.0 0.1
03:10 13.6 86.0 1016.3 3.2 N 4.9 N 0.0 0.1
03:15 13.6 83.7 1016.2 3.7 N 5.6 NNW 0.0 0.1
03:20 13.7 82.2 1016.1 3.0 N 4.9 NNW 0.0 0.1
03:25 13.7 81.3 1016.0 2.0 NNW 3.9 N 0.0 0.1
03:30 13.7 81.3 1016.0 2.0 NNW 4.6 NNW 0.0 0.1
03:35 13.6 80.4 1015.9 1.5 N 4.6 N 0.0 0.1
03:40 13.5 80.0 1015.9 2.5 NW 5.3 NNW 0.0 0.1
03:45 13.5 79.8 1015.9 0.7 NW 2.1 NW 0.0 0.1
03:50 13.5 79.8 1015.9 0.9 NNW 5.3 N 0.0 0.1
03:55 13.5 79.7 1016.0 0.8 NW 2.8 NW 0.0 0.1
04:00 13.5 78.1 1016.0 2.8 N 6.4 NNW 0.0 0.1
04:05 13.7 74.2 1015.9 4.2 NNW 7.8 NNW 0.0 0.1
04:10 13.9 72.7 1015.8 2.3 N 6.0 NNW 0.0 0.1
04:15 14.0 72.9 1015.7 0.5 WNW 3.2 WNW 0.0 0.1
04:20 13.9 73.1 1015.7 0.3 W 2.1 WNW 0.0 0.1
04:25 13.8 73.8 1015.7 0.1 ENE 2.5 ENE 0.0 0.1
04:30 13.6 74.9 1015.7 1.9 NE 3.2 NE 0.0 0.3
04:35 13.4 76.0 1015.7 0.0 NNE 0.0 E 0.0 0.6
04:40 13.3 76.1 1015.6 0.4 SW 2.1 SSW 0.0 1.3
04:45 13.2 76.4 1015.6 0.0 NNE 0.0 WSW 0.0 2.2
04:50 13.1 76.6 1015.7 0.0 NNE 0.0 WSW 0.0 5.6
04:55 13.1 77.5 1015.8 0.5 WSW 2.8 W 0.0 9.8
05:00 13.1 78.4 1015.8 2.4 WNW 3.2 WNW 0.0 10.3
05:05 13.3 79.7 1015.8 3.0 NNW 4.2 NNW 0.0 11.2
05:10 13.4 80.4 1015.8 2.7 NNW 4.6 NNW 0.0 14.1
05:15 13.4 81.1 1015.8 2.7 NNW 3.5 NNW 0.0 18.8
05:20 13.5 82.2 1015.8 2.2 NNW 3.5 NNE 0.0 22.6
05:25 13.6 82.9 1015.9 1.6 NNW 3.2 0.0 27.4
05:30 13.6 83.4 1015.9 1.6 NNW 3.9 NNW 0.0 36.1
05:35 13.6 83.5 1015.9 0.0 NNE 0.0 NNW 0.0 43.9
05:40 13.7 83.6 1015.9 0.0 NNE 0.0 NNW 0.0 51.6
05:45 13.7 83.7 1016.0 0.0 NNE 0.0 N 0.0 65.9
05:50 13.8 84.6 1016.0 0.2 N 2.5 N 0.0 74.4
05:55 14.1 85.7 1016.0 1.5 N 3.9 NNW 0.0 95.9
06:00 14.3 85.7 1016.0 0.8 NNE 3.2 N 0.0 131.5
06:05 14.6 86.1 1015.9 2.9 NE 5.3 NE 0.0 118.2
06:10 14.7 86.3 1015.9 4.6 E 9.9 ESE 0.0 100.9
06:15 14.7 86.4 1015.9 4.1 NE 8.8 NE 0.0 105.8
06:20 14.7 86.3 1015.9 2.8 NE 6.0 NNE 0.0 111.1
06:25 14.8 86.4 1015.9 3.2 ENE 9.9 ENE 0.0 143.2
06:30 14.9 85.6 1015.9 2.2 NE 6.7 ENE 0.0 167.4
Màxima 14.9 89.7 1017.7 4.6 E 9.9 ENE 0.0 167.4
Mínima 13.1 72.7 1015.6
Total 0.0